sensor_id;sensor_type;location;lat;lon;timestamp;P1;durP1;ratioP1;P2;durP2;ratioP2
40955;SDS011;26687;48.254;11.454;2023-06-10T00:01:54;5.75;;;5.18;;
40955;SDS011;26687;48.254;11.454;2023-06-10T00:07:58;6.03;;;5.47;;
40955;SDS011;26687;48.254;11.454;2023-06-10T00:10:59;6.07;;;5.57;;
40955;SDS011;26687;48.254;11.454;2023-06-10T00:14:00;5.38;;;4.97;;
40955;SDS011;26687;48.254;11.454;2023-06-10T00:17:00;5.83;;;5.33;;
40955;SDS011;26687;48.254;11.454;2023-06-10T00:20:00;6.20;;;5.70;;
40955;SDS011;26687;48.254;11.454;2023-06-10T00:23:04;5.25;;;4.85;;
40955;SDS011;26687;48.254;11.454;2023-06-10T00:26:06;6.57;;;4.60;;
40955;SDS011;26687;48.254;11.454;2023-06-10T00:29:07;5.20;;;4.80;;
40955;SDS011;26687;48.254;11.454;2023-06-10T00:32:07;5.18;;;4.78;;
40955;SDS011;26687;48.254;11.454;2023-06-10T00:35:08;5.47;;;5.07;;
40955;SDS011;26687;48.254;11.454;2023-06-10T00:38:08;5.00;;;4.60;;
40955;SDS011;26687;48.254;11.454;2023-06-10T00:41:08;5.43;;;5.03;;
40955;SDS011;26687;48.254;11.454;2023-06-10T00:44:08;5.27;;;4.87;;
40955;SDS011;26687;48.254;11.454;2023-06-10T00:47:08;5.05;;;4.65;;
40955;SDS011;26687;48.254;11.454;2023-06-10T00:50:09;5.60;;;5.03;;
40955;SDS011;26687;48.254;11.454;2023-06-10T00:53:09;5.35;;;4.85;;
40955;SDS011;26687;48.254;11.454;2023-06-10T00:56:09;5.35;;;4.95;;
40955;SDS011;26687;48.254;11.454;2023-06-10T00:59:10;5.43;;;5.03;;
40955;SDS011;26687;48.254;11.454;2023-06-10T01:02:10;5.47;;;4.97;;
40955;SDS011;26687;48.254;11.454;2023-06-10T01:05:10;6.03;;;4.80;;
40955;SDS011;26687;48.254;11.454;2023-06-10T01:11:19;5.57;;;5.03;;
40955;SDS011;26687;48.254;11.454;2023-06-10T01:14:20;5.65;;;5.20;;
40955;SDS011;26687;48.254;11.454;2023-06-10T01:17:22;5.40;;;4.95;;
40955;SDS011;26687;48.254;11.454;2023-06-10T01:20:22;5.37;;;4.97;;
40955;SDS011;26687;48.254;11.454;2023-06-10T01:23:24;5.10;;;4.70;;
40955;SDS011;26687;48.254;11.454;2023-06-10T01:26:25;5.50;;;5.05;;
40955;SDS011;26687;48.254;11.454;2023-06-10T01:29:30;6.35;;;5.32;;
40955;SDS011;26687;48.254;11.454;2023-06-10T01:32:40;6.07;;;5.57;;
40955;SDS011;26687;48.254;11.454;2023-06-10T01:35:44;5.72;;;5.22;;
40955;SDS011;26687;48.254;11.454;2023-06-10T01:38:47;5.47;;;5.07;;
40955;SDS011;26687;48.254;11.454;2023-06-10T01:41:47;5.93;;;5.35;;
40955;SDS011;26687;48.254;11.454;2023-06-10T01:44:48;5.80;;;5.40;;
40955;SDS011;26687;48.254;11.454;2023-06-10T01:47:48;6.25;;;5.75;;
40955;SDS011;26687;48.254;11.454;2023-06-10T01:50:48;6.57;;;5.97;;
40955;SDS011;26687;48.254;11.454;2023-06-10T01:53:48;7.63;;;5.97;;
40955;SDS011;26687;48.254;11.454;2023-06-10T01:56:49;6.03;;;5.50;;
40955;SDS011;26687;48.254;11.454;2023-06-10T01:59:49;5.70;;;5.27;;
40955;SDS011;26687;48.254;11.454;2023-06-10T02:02:49;6.35;;;5.80;;
40955;SDS011;26687;48.254;11.454;2023-06-10T02:05:50;6.22;;;5.63;;
40955;SDS011;26687;48.254;11.454;2023-06-10T02:08:50;6.18;;;5.70;;
40955;SDS011;26687;48.254;11.454;2023-06-10T02:11:50;7.32;;;6.78;;
40955;SDS011;26687;48.254;11.454;2023-06-10T02:14:50;6.30;;;5.80;;
40955;SDS011;26687;48.254;11.454;2023-06-10T02:17:51;6.43;;;5.93;;
40955;SDS011;26687;48.254;11.454;2023-06-10T02:20:51;5.85;;;5.35;;
40955;SDS011;26687;48.254;11.454;2023-06-10T02:23:52;6.40;;;5.90;;
40955;SDS011;26687;48.254;11.454;2023-06-10T02:26:52;7.68;;;5.97;;
40955;SDS011;26687;48.254;11.454;2023-06-10T02:29:53;6.47;;;5.97;;
40955;SDS011;26687;48.254;11.454;2023-06-10T02:32:53;6.07;;;5.57;;
40955;SDS011;26687;48.254;11.454;2023-06-10T02:35:55;6.28;;;5.78;;
40955;SDS011;26687;48.254;11.454;2023-06-10T02:38:56;6.25;;;5.65;;
40955;SDS011;26687;48.254;11.454;2023-06-10T02:41:56;7.00;;;6.22;;
40955;SDS011;26687;48.254;11.454;2023-06-10T02:44:56;7.13;;;6.47;;
40955;SDS011;26687;48.254;11.454;2023-06-10T02:47:56;6.68;;;5.70;;
40955;SDS011;26687;48.254;11.454;2023-06-10T02:50:56;5.73;;;5.33;;
40955;SDS011;26687;48.254;11.454;2023-06-10T02:53:57;6.65;;;6.07;;
40955;SDS011;26687;48.254;11.454;2023-06-10T02:56:57;6.88;;;6.28;;
40955;SDS011;26687;48.254;11.454;2023-06-10T02:59:57;7.00;;;6.40;;
40955;SDS011;26687;48.254;11.454;2023-06-10T03:02:58;6.63;;;6.10;;
40955;SDS011;26687;48.254;11.454;2023-06-10T03:06:02;6.47;;;5.97;;
40955;SDS011;26687;48.254;11.454;2023-06-10T03:09:03;6.68;;;6.05;;
40955;SDS011;26687;48.254;11.454;2023-06-10T03:12:10;6.88;;;6.18;;
40955;SDS011;26687;48.254;11.454;2023-06-10T03:15:10;6.82;;;6.22;;
40955;SDS011;26687;48.254;11.454;2023-06-10T03:18:10;7.13;;;6.53;;
40955;SDS011;26687;48.254;11.454;2023-06-10T03:21:11;6.60;;;6.00;;
40955;SDS011;26687;48.254;11.454;2023-06-10T03:24:11;6.85;;;6.25;;
40955;SDS011;26687;48.254;11.454;2023-06-10T03:27:12;6.28;;;5.75;;
40955;SDS011;26687;48.254;11.454;2023-06-10T03:30:13;7.40;;;6.78;;
40955;SDS011;26687;48.254;11.454;2023-06-10T03:33:13;6.50;;;5.85;;
40955;SDS011;26687;48.254;11.454;2023-06-10T03:36:14;7.00;;;6.30;;
40955;SDS011;26687;48.254;11.454;2023-06-10T03:39:15;7.00;;;6.40;;
40955;SDS011;26687;48.254;11.454;2023-06-10T03:42:15;7.20;;;6.38;;
40955;SDS011;26687;48.254;11.454;2023-06-10T03:45:16;6.65;;;6.05;;
40955;SDS011;26687;48.254;11.454;2023-06-10T03:48:16;6.93;;;6.43;;
40955;SDS011;26687;48.254;11.454;2023-06-10T03:51:16;6.85;;;6.25;;
40955;SDS011;26687;48.254;11.454;2023-06-10T03:54:16;6.70;;;6.10;;
40955;SDS011;26687;48.254;11.454;2023-06-10T03:57:17;7.10;;;6.50;;
40955;SDS011;26687;48.254;11.454;2023-06-10T04:00:17;6.55;;;6.05;;
40955;SDS011;26687;48.254;11.454;2023-06-10T04:03:17;7.30;;;6.60;;
40955;SDS011;26687;48.254;11.454;2023-06-10T04:06:17;7.05;;;6.35;;
40955;SDS011;26687;48.254;11.454;2023-06-10T04:09:18;7.00;;;6.50;;
40955;SDS011;26687;48.254;11.454;2023-06-10T04:12:18;7.00;;;6.50;;
40955;SDS011;26687;48.254;11.454;2023-06-10T04:15:18;6.90;;;6.30;;
40955;SDS011;26687;48.254;11.454;2023-06-10T04:18:18;6.72;;;6.22;;
40955;SDS011;26687;48.254;11.454;2023-06-10T04:21:18;6.90;;;6.30;;
40955;SDS011;26687;48.254;11.454;2023-06-10T04:24:18;6.90;;;6.30;;
40955;SDS011;26687;48.254;11.454;2023-06-10T04:27:19;6.82;;;6.22;;
40955;SDS011;26687;48.254;11.454;2023-06-10T04:30:19;6.93;;;6.32;;
40955;SDS011;26687;48.254;11.454;2023-06-10T04:33:19;7.30;;;6.27;;
40955;SDS011;26687;48.254;11.454;2023-06-10T04:36:19;6.35;;;5.90;;
40955;SDS011;26687;48.254;11.454;2023-06-10T04:39:20;7.43;;;6.72;;
40955;SDS011;26687;48.254;11.454;2023-06-10T04:42:20;6.80;;;6.23;;
40955;SDS011;26687;48.254;11.454;2023-06-10T04:45:20;7.68;;;7.07;;
40955;SDS011;26687;48.254;11.454;2023-06-10T04:48:20;7.15;;;6.45;;
40955;SDS011;26687;48.254;11.454;2023-06-10T04:51:20;6.90;;;6.40;;
40955;SDS011;26687;48.254;11.454;2023-06-10T04:54:21;6.88;;;6.28;;
40955;SDS011;26687;48.254;11.454;2023-06-10T04:57:21;6.80;;;6.30;;
40955;SDS011;26687;48.254;11.454;2023-06-10T05:00:21;6.57;;;6.07;;
40955;SDS011;26687;48.254;11.454;2023-06-10T05:03:22;6.45;;;5.95;;
40955;SDS011;26687;48.254;11.454;2023-06-10T05:06:22;7.43;;;6.82;;
40955;SDS011;26687;48.254;11.454;2023-06-10T05:09:22;6.83;;;6.23;;
40955;SDS011;26687;48.254;11.454;2023-06-10T05:12:22;18.67;;;9.88;;
40955;SDS011;26687;48.254;11.454;2023-06-10T05:15:23;14.70;;;9.07;;
40955;SDS011;26687;48.254;11.454;2023-06-10T05:18:23;7.78;;;7.00;;
40955;SDS011;26687;48.254;11.454;2023-06-10T05:21:23;8.07;;;7.37;;
40955;SDS011;26687;48.254;11.454;2023-06-10T05:24:23;8.45;;;7.70;;
40955;SDS011;26687;48.254;11.454;2023-06-10T05:27:24;8.25;;;7.45;;
40955;SDS011;26687;48.254;11.454;2023-06-10T05:30:24;8.25;;;7.45;;
40955;SDS011;26687;48.254;11.454;2023-06-10T05:33:25;7.30;;;6.70;;
40955;SDS011;26687;48.254;11.454;2023-06-10T05:36:25;8.00;;;7.13;;
40955;SDS011;26687;48.254;11.454;2023-06-10T05:39:26;8.30;;;7.60;;
40955;SDS011;26687;48.254;11.454;2023-06-10T05:42:26;7.22;;;6.57;;
40955;SDS011;26687;48.254;11.454;2023-06-10T05:45:27;7.73;;;7.03;;
40955;SDS011;26687;48.254;11.454;2023-06-10T05:48:27;7.90;;;7.30;;
40955;SDS011;26687;48.254;11.454;2023-06-10T05:51:27;8.00;;;7.30;;
40955;SDS011;26687;48.254;11.454;2023-06-10T05:54:28;7.55;;;6.93;;
40955;SDS011;26687;48.254;11.454;2023-06-10T05:57:28;7.63;;;6.90;;
40955;SDS011;26687;48.254;11.454;2023-06-10T06:00:28;7.80;;;7.10;;
40955;SDS011;26687;48.254;11.454;2023-06-10T06:03:29;6.93;;;6.33;;
40955;SDS011;26687;48.254;11.454;2023-06-10T06:06:29;6.90;;;6.40;;
40955;SDS011;26687;48.254;11.454;2023-06-10T06:09:29;6.50;;;5.97;;
40955;SDS011;26687;48.254;11.454;2023-06-10T06:12:29;7.28;;;6.68;;
40955;SDS011;26687;48.254;11.454;2023-06-10T06:15:29;6.50;;;6.00;;
40955;SDS011;26687;48.254;11.454;2023-06-10T06:18:30;6.93;;;6.33;;
40955;SDS011;26687;48.254;11.454;2023-06-10T06:21:30;6.72;;;6.13;;
40955;SDS011;26687;48.254;11.454;2023-06-10T06:24:30;7.00;;;6.40;;
40955;SDS011;26687;48.254;11.454;2023-06-10T06:27:30;6.80;;;6.20;;
40955;SDS011;26687;48.254;11.454;2023-06-10T06:30:31;7.13;;;6.53;;
40955;SDS011;26687;48.254;11.454;2023-06-10T06:33:31;6.53;;;5.90;;
40955;SDS011;26687;48.254;11.454;2023-06-10T06:36:31;6.80;;;6.20;;
40955;SDS011;26687;48.254;11.454;2023-06-10T06:39:31;6.27;;;5.67;;
40955;SDS011;26687;48.254;11.454;2023-06-10T06:42:31;6.20;;;5.70;;
40955;SDS011;26687;48.254;11.454;2023-06-10T06:45:32;6.60;;;6.10;;
40955;SDS011;26687;48.254;11.454;2023-06-10T06:48:33;6.72;;;6.13;;
40955;SDS011;26687;48.254;11.454;2023-06-10T06:51:34;6.87;;;6.27;;
40955;SDS011;26687;48.254;11.454;2023-06-10T06:54:34;7.25;;;6.53;;
40955;SDS011;26687;48.254;11.454;2023-06-10T06:57:34;6.30;;;5.73;;
40955;SDS011;26687;48.254;11.454;2023-06-10T07:00:34;5.85;;;5.35;;
40955;SDS011;26687;48.254;11.454;2023-06-10T07:03:34;6.32;;;5.82;;
40955;SDS011;26687;48.254;11.454;2023-06-10T07:06:34;6.80;;;6.10;;
40955;SDS011;26687;48.254;11.454;2023-06-10T07:09:35;6.88;;;6.38;;
40955;SDS011;26687;48.254;11.454;2023-06-10T07:12:35;6.72;;;6.22;;
40955;SDS011;26687;48.254;11.454;2023-06-10T07:15:35;7.40;;;6.83;;
40955;SDS011;26687;48.254;11.454;2023-06-10T07:18:36;7.82;;;6.95;;
40955;SDS011;26687;48.254;11.454;2023-06-10T07:21:36;7.10;;;6.50;;
40955;SDS011;26687;48.254;11.454;2023-06-10T07:24:37;7.63;;;6.93;;
40955;SDS011;26687;48.254;11.454;2023-06-10T07:27:38;7.67;;;7.07;;
40955;SDS011;26687;48.254;11.454;2023-06-10T07:30:38;7.53;;;6.93;;
40955;SDS011;26687;48.254;11.454;2023-06-10T07:33:38;6.93;;;6.33;;
40955;SDS011;26687;48.254;11.454;2023-06-10T07:39:41;6.40;;;5.90;;
40955;SDS011;26687;48.254;11.454;2023-06-10T07:42:43;5.60;;;5.20;;
40955;SDS011;26687;48.254;11.454;2023-06-10T07:45:43;6.53;;;5.93;;
40955;SDS011;26687;48.254;11.454;2023-06-10T07:48:43;5.78;;;5.38;;
40955;SDS011;26687;48.254;11.454;2023-06-10T07:51:43;6.22;;;5.72;;
40955;SDS011;26687;48.254;11.454;2023-06-10T07:54:44;5.93;;;5.43;;
40955;SDS011;26687;48.254;11.454;2023-06-10T07:57:44;5.28;;;4.88;;
40955;SDS011;26687;48.254;11.454;2023-06-10T08:00:44;4.20;;;3.80;;
40955;SDS011;26687;48.254;11.454;2023-06-10T08:03:45;3.97;;;3.63;;
40955;SDS011;26687;48.254;11.454;2023-06-10T08:06:45;4.80;;;4.35;;
40955;SDS011;26687;48.254;11.454;2023-06-10T08:09:45;5.22;;;4.72;;
40955;SDS011;26687;48.254;11.454;2023-06-10T08:12:45;3.77;;;3.47;;
40955;SDS011;26687;48.254;11.454;2023-06-10T08:15:47;5.22;;;4.80;;
40955;SDS011;26687;48.254;11.454;2023-06-10T08:18:50;7.25;;;5.22;;
40955;SDS011;26687;48.254;11.454;2023-06-10T08:21:50;5.43;;;5.03;;
40955;SDS011;26687;48.254;11.454;2023-06-10T08:24:50;6.88;;;6.22;;
40955;SDS011;26687;48.254;11.454;2023-06-10T08:27:51;5.35;;;4.95;;
40955;SDS011;26687;48.254;11.454;2023-06-10T08:30:52;6.20;;;5.60;;
40955;SDS011;26687;48.254;11.454;2023-06-10T08:33:52;5.57;;;5.07;;
40955;SDS011;26687;48.254;11.454;2023-06-10T08:36:52;5.87;;;5.37;;
40955;SDS011;26687;48.254;11.454;2023-06-10T08:39:55;6.82;;;6.22;;
40955;SDS011;26687;48.254;11.454;2023-06-10T08:43:39;5.43;;;4.93;;
40955;SDS011;26687;48.254;11.454;2023-06-10T08:46:18;6.00;;;5.40;;
40955;SDS011;26687;48.254;11.454;2023-06-10T08:49:19;5.63;;;5.20;;
40955;SDS011;26687;48.254;11.454;2023-06-10T08:52:21;5.63;;;5.13;;
40955;SDS011;26687;48.254;11.454;2023-06-10T08:55:21;5.43;;;4.93;;
40955;SDS011;26687;48.254;11.454;2023-06-10T08:58:26;4.40;;;4.00;;
40955;SDS011;26687;48.254;11.454;2023-06-10T09:01:27;4.85;;;4.40;;
40955;SDS011;26687;48.254;11.454;2023-06-10T09:04:27;6.00;;;4.68;;
40955;SDS011;26687;48.254;11.454;2023-06-10T09:07:29;4.32;;;4.03;;
40955;SDS011;26687;48.254;11.454;2023-06-10T09:13:31;5.18;;;4.70;;
40955;SDS011;26687;48.254;11.454;2023-06-10T09:16:31;5.00;;;4.60;;
40955;SDS011;26687;48.254;11.454;2023-06-10T09:19:32;5.13;;;4.73;;
40955;SDS011;26687;48.254;11.454;2023-06-10T09:22:32;5.25;;;4.75;;
40955;SDS011;26687;48.254;11.454;2023-06-10T09:25:36;4.50;;;4.10;;
40955;SDS011;26687;48.254;11.454;2023-06-10T09:28:37;4.47;;;4.07;;
40955;SDS011;26687;48.254;11.454;2023-06-10T09:31:38;4.63;;;4.30;;
40955;SDS011;26687;48.254;11.454;2023-06-10T09:34:38;4.68;;;4.38;;
40955;SDS011;26687;48.254;11.454;2023-06-10T09:37:39;4.85;;;4.45;;
40955;SDS011;26687;48.254;11.454;2023-06-10T09:40:52;3.17;;;2.90;;
40955;SDS011;26687;48.254;11.454;2023-06-10T09:43:52;3.13;;;2.92;;
40955;SDS011;26687;48.254;11.454;2023-06-10T09:46:52;3.42;;;3.20;;
40955;SDS011;26687;48.254;11.454;2023-06-10T09:49:54;3.92;;;3.63;;
40955;SDS011;26687;48.254;11.454;2023-06-10T09:52:56;4.72;;;3.40;;
40955;SDS011;26687;48.254;11.454;2023-06-10T09:55:56;3.50;;;3.20;;
40955;SDS011;26687;48.254;11.454;2023-06-10T09:58:57;3.90;;;3.60;;
40955;SDS011;26687;48.254;11.454;2023-06-10T10:01:57;3.13;;;2.92;;
40955;SDS011;26687;48.254;11.454;2023-06-10T10:05:04;3.10;;;2.90;;
40955;SDS011;26687;48.254;11.454;2023-06-10T10:08:04;3.33;;;3.13;;
40955;SDS011;26687;48.254;11.454;2023-06-10T10:11:04;2.80;;;2.60;;
40955;SDS011;26687;48.254;11.454;2023-06-10T10:14:05;3.03;;;2.83;;
40955;SDS011;26687;48.254;11.454;2023-06-10T10:17:09;2.97;;;2.67;;
40955;SDS011;26687;48.254;11.454;2023-06-10T10:20:11;4.30;;;2.83;;
40955;SDS011;26687;48.254;11.454;2023-06-10T10:23:12;2.92;;;2.72;;
40955;SDS011;26687;48.254;11.454;2023-06-10T10:26:14;2.92;;;2.72;;
40955;SDS011;26687;48.254;11.454;2023-06-10T10:29:16;2.70;;;2.50;;
40955;SDS011;26687;48.254;11.454;2023-06-10T10:32:21;2.80;;;2.60;;
40955;SDS011;26687;48.254;11.454;2023-06-10T10:35:24;3.58;;;3.28;;
40955;SDS011;26687;48.254;11.454;2023-06-10T10:38:25;4.40;;;4.00;;
40955;SDS011;26687;48.254;11.454;2023-06-10T10:41:25;3.20;;;2.95;;
40955;SDS011;26687;48.254;11.454;2023-06-10T10:44:26;2.70;;;2.50;;
40955;SDS011;26687;48.254;11.454;2023-06-10T10:47:27;2.80;;;2.60;;
40955;SDS011;26687;48.254;11.454;2023-06-10T10:50:29;3.00;;;2.80;;
40955;SDS011;26687;48.254;11.454;2023-06-10T10:53:30;3.03;;;2.75;;
40955;SDS011;26687;48.254;11.454;2023-06-10T10:56:31;3.47;;;2.85;;
40955;SDS011;26687;48.254;11.454;2023-06-10T11:02:51;2.85;;;2.65;;
40955;SDS011;26687;48.254;11.454;2023-06-10T11:05:53;3.45;;;3.20;;
40955;SDS011;26687;48.254;11.454;2023-06-10T11:08:56;3.85;;;3.58;;
40955;SDS011;26687;48.254;11.454;2023-06-10T11:11:57;3.73;;;3.43;;
40955;SDS011;26687;48.254;11.454;2023-06-10T11:14:58;3.85;;;3.55;;
40955;SDS011;26687;48.254;11.454;2023-06-10T11:21:11;3.37;;;3.10;;
40955;SDS011;26687;48.254;11.454;2023-06-10T11:24:12;3.97;;;3.60;;
40955;SDS011;26687;48.254;11.454;2023-06-10T11:27:19;3.63;;;3.35;;
40955;SDS011;26687;48.254;11.454;2023-06-10T11:30:20;4.03;;;3.28;;
40955;SDS011;26687;48.254;11.454;2023-06-10T11:33:20;3.90;;;3.60;;
40955;SDS011;26687;48.254;11.454;2023-06-10T11:36:21;4.13;;;3.75;;
40955;SDS011;26687;48.254;11.454;2023-06-10T11:39:22;5.00;;;3.85;;
40955;SDS011;26687;48.254;11.454;2023-06-10T11:42:24;4.72;;;4.22;;
40955;SDS011;26687;48.254;11.454;2023-06-10T11:45:24;3.97;;;3.67;;
40955;SDS011;26687;48.254;11.454;2023-06-10T11:48:25;4.20;;;3.90;;
40955;SDS011;26687;48.254;11.454;2023-06-10T11:51:29;4.25;;;3.90;;
40955;SDS011;26687;48.254;11.454;2023-06-10T11:54:30;3.92;;;3.60;;
40955;SDS011;26687;48.254;11.454;2023-06-10T11:57:33;2.92;;;2.67;;
40955;SDS011;26687;48.254;11.454;2023-06-10T12:00:33;4.47;;;4.18;;
40955;SDS011;26687;48.254;11.454;2023-06-10T12:03:37;3.67;;;3.38;;
40955;SDS011;26687;48.254;11.454;2023-06-10T12:06:44;4.10;;;3.70;;
40955;SDS011;26687;48.254;11.454;2023-06-10T12:09:46;3.88;;;3.58;;
40955;SDS011;26687;48.254;11.454;2023-06-10T12:12:46;4.15;;;3.85;;
40955;SDS011;26687;48.254;11.454;2023-06-10T12:15:47;3.93;;;3.63;;
40955;SDS011;26687;48.254;11.454;2023-06-10T12:18:47;5.20;;;3.30;;
40955;SDS011;26687;48.254;11.454;2023-06-10T12:21:48;3.38;;;3.17;;
40955;SDS011;26687;48.254;11.454;2023-06-10T12:24:58;3.73;;;3.43;;
40955;SDS011;26687;48.254;11.454;2023-06-10T12:28:02;3.65;;;3.35;;
40955;SDS011;26687;48.254;11.454;2023-06-10T12:31:08;2.80;;;2.60;;
40955;SDS011;26687;48.254;11.454;2023-06-10T12:34:09;2.90;;;2.70;;
40955;SDS011;26687;48.254;11.454;2023-06-10T12:37:12;2.92;;;2.72;;
40955;SDS011;26687;48.254;11.454;2023-06-10T12:40:15;3.35;;;3.05;;
40955;SDS011;26687;48.254;11.454;2023-06-10T12:43:24;3.47;;;3.20;;
40955;SDS011;26687;48.254;11.454;2023-06-10T12:46:25;3.05;;;2.85;;
40955;SDS011;26687;48.254;11.454;2023-06-10T12:49:36;3.70;;;3.40;;
40955;SDS011;26687;48.254;11.454;2023-06-10T12:52:36;3.40;;;3.10;;
40955;SDS011;26687;48.254;11.454;2023-06-10T12:55:37;3.58;;;3.28;;
40955;SDS011;26687;48.254;11.454;2023-06-10T12:58:37;4.22;;;2.75;;
40955;SDS011;26687;48.254;11.454;2023-06-10T13:01:37;3.83;;;3.53;;
40955;SDS011;26687;48.254;11.454;2023-06-10T13:04:37;3.30;;;3.05;;
40955;SDS011;26687;48.254;11.454;2023-06-10T13:07:39;2.95;;;2.75;;
40955;SDS011;26687;48.254;11.454;2023-06-10T13:10:39;2.50;;;2.30;;
40955;SDS011;26687;48.254;11.454;2023-06-10T13:13:39;3.63;;;3.33;;
40955;SDS011;26687;48.254;11.454;2023-06-10T13:16:39;3.53;;;3.33;;
40955;SDS011;26687;48.254;11.454;2023-06-10T13:19:40;3.80;;;3.50;;
40955;SDS011;26687;48.254;11.454;2023-06-10T13:22:40;3.53;;;3.20;;
40955;SDS011;26687;48.254;11.454;2023-06-10T13:25:41;4.03;;;3.72;;
40955;SDS011;26687;48.254;11.454;2023-06-10T13:28:44;4.05;;;3.72;;
40955;SDS011;26687;48.254;11.454;2023-06-10T13:31:44;3.77;;;3.47;;
40955;SDS011;26687;48.254;11.454;2023-06-10T13:34:44;3.83;;;3.53;;
40955;SDS011;26687;48.254;11.454;2023-06-10T13:37:45;3.58;;;3.28;;
40955;SDS011;26687;48.254;11.454;2023-06-10T13:40:45;3.40;;;3.20;;
40955;SDS011;26687;48.254;11.454;2023-06-10T13:43:46;3.67;;;3.47;;
40955;SDS011;26687;48.254;11.454;2023-06-10T13:46:46;3.67;;;3.38;;
40955;SDS011;26687;48.254;11.454;2023-06-10T13:49:46;3.87;;;3.47;;
40955;SDS011;26687;48.254;11.454;2023-06-10T13:52:47;3.87;;;3.50;;
40955;SDS011;26687;48.254;11.454;2023-06-10T13:55:47;3.37;;;3.07;;
40955;SDS011;26687;48.254;11.454;2023-06-10T13:58:54;3.38;;;3.08;;
40955;SDS011;26687;48.254;11.454;2023-06-10T14:01:54;3.33;;;3.03;;
40955;SDS011;26687;48.254;11.454;2023-06-10T14:04:55;3.67;;;2.80;;
40955;SDS011;26687;48.254;11.454;2023-06-10T14:07:55;3.78;;;2.97;;
40955;SDS011;26687;48.254;11.454;2023-06-10T14:10:56;3.70;;;3.40;;
40955;SDS011;26687;48.254;11.454;2023-06-10T14:13:56;4.20;;;3.80;;
40955;SDS011;26687;48.254;11.454;2023-06-10T14:16:57;4.97;;;3.20;;
40955;SDS011;26687;48.254;11.454;2023-06-10T14:19:57;3.50;;;3.20;;
40955;SDS011;26687;48.254;11.454;2023-06-10T14:22:58;4.23;;;3.93;;
40955;SDS011;26687;48.254;11.454;2023-06-10T14:25:58;3.53;;;3.33;;
40955;SDS011;26687;48.254;11.454;2023-06-10T14:28:58;3.60;;;3.28;;
40955;SDS011;26687;48.254;11.454;2023-06-10T14:31:59;3.63;;;3.23;;
40955;SDS011;26687;48.254;11.454;2023-06-10T14:34:59;2.67;;;2.47;;
40955;SDS011;26687;48.254;11.454;2023-06-10T14:38:00;3.03;;;2.72;;
40955;SDS011;26687;48.254;11.454;2023-06-10T14:41:00;2.53;;;2.33;;
40955;SDS011;26687;48.254;11.454;2023-06-10T14:44:00;3.00;;;2.80;;
40955;SDS011;26687;48.254;11.454;2023-06-10T14:47:00;2.20;;;2.10;;
40955;SDS011;26687;48.254;11.454;2023-06-10T14:50:00;2.20;;;2.00;;
40955;SDS011;26687;48.254;11.454;2023-06-10T14:53:01;2.00;;;1.90;;
40955;SDS011;26687;48.254;11.454;2023-06-10T14:56:01;1.95;;;1.85;;
40955;SDS011;26687;48.254;11.454;2023-06-10T14:59:01;3.47;;;1.77;;
40955;SDS011;26687;48.254;11.454;2023-06-10T15:02:02;1.90;;;1.80;;
40955;SDS011;26687;48.254;11.454;2023-06-10T15:05:02;2.20;;;2.00;;
40955;SDS011;26687;48.254;11.454;2023-06-10T15:08:04;2.65;;;2.45;;
40955;SDS011;26687;48.254;11.454;2023-06-10T15:11:04;2.45;;;2.25;;
40955;SDS011;26687;48.254;11.454;2023-06-10T15:14:04;3.08;;;2.65;;
40955;SDS011;26687;48.254;11.454;2023-06-10T15:17:05;2.90;;;2.70;;
40955;SDS011;26687;48.254;11.454;2023-06-10T15:20:05;3.63;;;2.85;;
40955;SDS011;26687;48.254;11.454;2023-06-10T15:23:05;3.17;;;2.92;;
40955;SDS011;26687;48.254;11.454;2023-06-10T15:26:07;3.03;;;2.67;;
40955;SDS011;26687;48.254;11.454;2023-06-10T15:29:08;2.50;;;2.30;;
40955;SDS011;26687;48.254;11.454;2023-06-10T15:32:09;3.08;;;2.88;;
40955;SDS011;26687;48.254;11.454;2023-06-10T15:35:09;2.70;;;2.50;;
40955;SDS011;26687;48.254;11.454;2023-06-10T15:38:10;2.40;;;2.20;;
40955;SDS011;26687;48.254;11.454;2023-06-10T15:41:10;2.28;;;2.13;;
40955;SDS011;26687;48.254;11.454;2023-06-10T15:44:10;2.50;;;2.30;;
40955;SDS011;26687;48.254;11.454;2023-06-10T15:47:10;3.10;;;2.90;;
40955;SDS011;26687;48.254;11.454;2023-06-10T15:50:10;3.60;;;2.90;;
40955;SDS011;26687;48.254;11.454;2023-06-10T15:53:11;2.23;;;2.03;;
40955;SDS011;26687;48.254;11.454;2023-06-10T15:56:11;3.05;;;2.85;;
40955;SDS011;26687;48.254;11.454;2023-06-10T15:59:11;2.83;;;2.63;;
40955;SDS011;26687;48.254;11.454;2023-06-10T16:02:11;2.55;;;2.35;;
40955;SDS011;26687;48.254;11.454;2023-06-10T16:05:12;3.65;;;2.38;;
40955;SDS011;26687;48.254;11.454;2023-06-10T16:08:12;2.78;;;2.58;;
40955;SDS011;26687;48.254;11.454;2023-06-10T16:11:12;3.00;;;2.80;;
40955;SDS011;26687;48.254;11.454;2023-06-10T16:14:12;3.03;;;2.83;;
40955;SDS011;26687;48.254;11.454;2023-06-10T16:17:13;2.70;;;2.50;;
40955;SDS011;26687;48.254;11.454;2023-06-10T16:20:14;3.05;;;2.75;;
40955;SDS011;26687;48.254;11.454;2023-06-10T16:23:14;3.13;;;2.83;;
40955;SDS011;26687;48.254;11.454;2023-06-10T16:26:15;2.08;;;1.98;;
40955;SDS011;26687;48.254;11.454;2023-06-10T16:29:15;2.40;;;2.25;;
40955;SDS011;26687;48.254;11.454;2023-06-10T16:32:15;3.63;;;2.65;;
40955;SDS011;26687;48.254;11.454;2023-06-10T16:35:15;2.95;;;2.75;;
40955;SDS011;26687;48.254;11.454;2023-06-10T16:38:16;4.30;;;3.03;;
40955;SDS011;26687;48.254;11.454;2023-06-10T16:41:16;3.47;;;2.93;;
40955;SDS011;26687;48.254;11.454;2023-06-10T16:44:16;3.42;;;2.70;;
40955;SDS011;26687;48.254;11.454;2023-06-10T16:47:16;2.55;;;2.35;;
40955;SDS011;26687;48.254;11.454;2023-06-10T16:50:17;2.90;;;2.70;;
40955;SDS011;26687;48.254;11.454;2023-06-10T16:53:17;2.60;;;2.40;;
40955;SDS011;26687;48.254;11.454;2023-06-10T16:56:17;3.30;;;2.92;;
40955;SDS011;26687;48.254;11.454;2023-06-10T16:59:17;3.47;;;3.17;;
40955;SDS011;26687;48.254;11.454;2023-06-10T17:02:17;3.25;;;3.05;;
40955;SDS011;26687;48.254;11.454;2023-06-10T17:05:18;3.03;;;2.83;;
40955;SDS011;26687;48.254;11.454;2023-06-10T17:08:18;2.95;;;2.75;;
40955;SDS011;26687;48.254;11.454;2023-06-10T17:11:18;2.60;;;2.50;;
40955;SDS011;26687;48.254;11.454;2023-06-10T17:14:18;4.23;;;3.03;;
40955;SDS011;26687;48.254;11.454;2023-06-10T17:17:18;3.57;;;3.03;;
40955;SDS011;26687;48.254;11.454;2023-06-10T17:20:18;3.43;;;3.10;;
40955;SDS011;26687;48.254;11.454;2023-06-10T17:23:19;2.85;;;2.65;;
40955;SDS011;26687;48.254;11.454;2023-06-10T17:26:19;3.83;;;3.27;;
40955;SDS011;26687;48.254;11.454;2023-06-10T17:29:20;3.42;;;3.13;;
40955;SDS011;26687;48.254;11.454;2023-06-10T17:32:20;3.30;;;2.83;;
40955;SDS011;26687;48.254;11.454;2023-06-10T17:35:20;3.10;;;2.90;;
40955;SDS011;26687;48.254;11.454;2023-06-10T17:38:20;3.13;;;2.90;;
40955;SDS011;26687;48.254;11.454;2023-06-10T17:41:21;2.88;;;2.67;;
40955;SDS011;26687;48.254;11.454;2023-06-10T17:44:22;2.90;;;2.70;;
40955;SDS011;26687;48.254;11.454;2023-06-10T17:47:24;2.87;;;2.67;;
40955;SDS011;26687;48.254;11.454;2023-06-10T17:50:24;3.00;;;2.75;;
40955;SDS011;26687;48.254;11.454;2023-06-10T17:53:24;2.90;;;2.70;;
40955;SDS011;26687;48.254;11.454;2023-06-10T17:56:25;3.00;;;2.80;;
40955;SDS011;26687;48.254;11.454;2023-06-10T17:59:25;3.30;;;3.10;;
40955;SDS011;26687;48.254;11.454;2023-06-10T18:02:25;3.30;;;3.00;;
40955;SDS011;26687;48.254;11.454;2023-06-10T18:05:26;3.53;;;3.23;;
40955;SDS011;26687;48.254;11.454;2023-06-10T18:08:26;3.92;;;3.17;;
40955;SDS011;26687;48.254;11.454;2023-06-10T18:11:28;4.15;;;3.10;;